createdAt,value
2023-02-09T00:01:30.634Z,35.60
2023-02-09T00:04:00.487Z,35.60
2023-02-09T00:06:30.735Z,35.50
2023-02-09T00:08:59.946Z,35.60
2023-02-09T00:11:44.296Z,35.50
2023-02-09T00:14:16.483Z,35.60
2023-02-09T00:16:45.772Z,35.60
2023-02-09T00:19:15.565Z,35.60
2023-02-09T00:21:44.289Z,35.60
2023-02-09T00:24:13.511Z,35.60
2023-02-09T00:26:43.188Z,35.60
2023-02-09T00:29:14.355Z,35.60
2023-02-09T00:31:43.638Z,35.60
2023-02-09T00:34:12.876Z,35.60
2023-02-09T00:36:42.129Z,35.60
2023-02-09T00:39:12.399Z,35.60
2023-02-09T00:41:59.073Z,35.60
2023-02-09T00:44:29.598Z,35.60
2023-02-09T00:46:58.764Z,35.60
2023-02-09T00:49:28.005Z,35.60
2023-02-09T00:51:57.262Z,35.60
2023-02-09T00:54:26.673Z,35.50
2023-02-09T00:56:55.827Z,35.60
2023-02-09T00:59:25.039Z,35.60
2023-02-09T01:01:55.666Z,35.50
2023-02-09T01:04:27.951Z,35.60
2023-02-09T01:06:56.859Z,35.60
2023-02-09T01:09:26.062Z,35.60
2023-02-09T01:11:55.612Z,35.70
2023-02-09T01:14:25.143Z,35.60
2023-02-09T01:16:56.172Z,35.60
2023-02-09T01:19:27.032Z,35.60
2023-02-09T01:21:55.930Z,35.60
2023-02-09T01:24:25.203Z,35.60
2023-02-09T01:26:54.486Z,35.60
2023-02-09T01:29:24.215Z,35.60
2023-02-09T01:31:54.683Z,35.60
2023-02-09T01:34:23.809Z,35.60
2023-02-09T01:36:53.040Z,35.60
2023-02-09T01:39:22.378Z,36.20
2023-02-09T01:41:54.125Z,35.60
2023-02-09T01:45:00.505Z,35.60
2023-02-09T01:47:31.256Z,35.60
2023-02-09T01:50:01.015Z,35.60
2023-02-09T01:52:31.817Z,35.60
2023-02-09T01:55:04.085Z,35.60
2023-02-09T01:57:36.095Z,35.60
2023-02-09T02:00:09.634Z,35.60
2023-02-09T02:02:41.020Z,35.60
2023-02-09T02:05:10.580Z,35.60
2023-02-09T02:07:44.543Z,35.60
2023-02-09T02:10:13.799Z,35.60
2023-02-09T02:12:44.136Z,35.60
2023-02-09T02:15:14.197Z,35.60
2023-02-09T02:18:09.727Z,35.60
2023-02-09T02:21:23.260Z,35.60
2023-02-09T02:24:21.596Z,35.60
2023-02-09T02:26:56.423Z,35.60
2023-02-09T02:29:51.277Z,35.60
2023-02-09T02:32:42.551Z,35.60
2023-02-09T02:35:19.656Z,35.70
2023-02-09T02:38:00.311Z,35.60
2023-02-09T02:40:43.246Z,35.60
2023-02-09T02:43:24.125Z,35.60
2023-02-09T02:46:00.847Z,35.60
2023-02-09T02:48:41.073Z,35.60
2023-02-09T02:51:14.424Z,36.20
2023-02-09T02:53:51.452Z,35.60
2023-02-09T02:56:26.657Z,35.70
2023-02-09T02:59:00.095Z,35.60
2023-02-09T03:01:34.631Z,35.60
2023-02-09T03:04:08.689Z,35.60
2023-02-09T03:06:41.455Z,35.60
2023-02-09T03:09:12.226Z,35.70
2023-02-09T03:11:46.489Z,35.60
2023-02-09T03:14:40.844Z,35.60
2023-02-09T03:17:19.645Z,35.60
2023-02-09T03:20:15.840Z,35.60
2023-02-09T03:22:50.469Z,35.60
2023-02-09T03:25:27.209Z,36.20
2023-02-09T03:28:02.611Z,35.60
2023-02-09T03:30:33.420Z,35.60
2023-02-09T03:33:04.017Z,35.60
2023-02-09T03:35:40.469Z,35.60
2023-02-09T03:38:09.663Z,35.60
2023-02-09T03:40:38.846Z,35.60
2023-02-09T03:43:08.178Z,35.60
2023-02-09T03:45:37.378Z,35.60
2023-02-09T03:48:07.954Z,35.60
2023-02-09T03:50:39.392Z,35.60
2023-02-09T03:53:08.656Z,35.60
2023-02-09T03:55:37.914Z,35.60
2023-02-09T03:58:07.708Z,35.10
2023-02-09T04:00:39.800Z,35.10
2023-02-09T04:03:12.074Z,35.10
2023-02-09T04:05:43.593Z,35.10
2023-02-09T04:08:13.381Z,35.10
2023-02-09T04:10:42.609Z,35.10
2023-02-09T04:13:14.814Z,35.20
2023-02-09T04:15:44.350Z,35.40
2023-02-09T04:18:13.841Z,35.40
2023-02-09T04:20:44.742Z,35.40
2023-02-09T04:23:14.335Z,35.60
2023-02-09T04:25:43.876Z,35.60
2023-02-09T04:28:13.147Z,35.80
2023-02-09T04:30:43.830Z,35.80
2023-02-09T04:33:13.369Z,35.80
2023-02-09T04:35:45.768Z,36.00
2023-02-09T04:38:19.479Z,36.00
2023-02-09T04:40:49.277Z,36.10
2023-02-09T04:43:18.559Z,36.10
2023-02-09T04:45:47.871Z,36.20
2023-02-09T04:48:18.517Z,34.60
2023-02-09T05:57:05.548Z,33.50
2023-02-09T06:17:51.884Z,37.70
2023-02-09T07:46:59.858Z,38.60
2023-02-09T08:01:33.102Z,38.70
2023-02-09T09:33:48.418Z,37.90
2023-02-09T10:40:51.348Z,36.80
2023-02-09T11:39:00.535Z,36.10
2023-02-09T11:41:59.103Z,36.00
2023-02-09T12:09:41.858Z,35.80
2023-02-09T12:12:23.825Z,35.80
2023-02-09T12:15:17.803Z,35.80
2023-02-09T12:17:55.352Z,35.80
2023-02-09T12:20:45.892Z,35.80
2023-02-09T12:23:51.885Z,35.80
2023-02-09T12:30:54.199Z,35.60
2023-02-09T12:34:09.856Z,35.70
2023-02-09T12:37:35.981Z,35.60
2023-02-09T12:40:53.742Z,35.50
2023-02-09T12:48:01.899Z,35.50
2023-02-09T12:51:28.276Z,35.50
2023-02-09T12:53:59.561Z,35.40
2023-02-09T12:56:44.988Z,35.50
2023-02-09T13:13:25.887Z,35.20
2023-02-09T13:21:05.702Z,35.20
2023-02-09T13:23:43.991Z,35.20
2023-02-09T13:26:20.961Z,35.20
2023-02-09T13:28:50.559Z,35.10
2023-02-09T13:31:32.427Z,35.20
2023-02-09T13:34:08.115Z,35.00
2023-02-09T13:36:47.505Z,34.90
2023-02-09T13:39:24.164Z,35.10
2023-02-09T13:41:55.167Z,34.90
2023-02-09T13:44:27.417Z,35.00
2023-02-09T13:46:58.637Z,35.00
2023-02-09T13:49:29.358Z,35.50
2023-02-09T13:52:14.273Z,34.90
2023-02-09T13:54:44.023Z,34.90
2023-02-09T13:57:23.824Z,35.00
2023-02-09T13:59:53.364Z,35.00
2023-02-09T14:02:27.354Z,35.00
2023-02-09T14:04:59.595Z,35.00
2023-02-09T14:07:34.931Z,35.00
2023-02-09T14:10:08.301Z,34.90
2023-02-09T14:12:53.109Z,35.00
2023-02-09T14:15:48.945Z,35.00
2023-02-09T14:18:32.057Z,35.00
2023-02-09T14:21:03.522Z,35.00
2023-02-09T14:23:36.895Z,35.00
2023-02-09T14:26:08.545Z,35.00
2023-02-09T14:28:38.412Z,35.00
2023-02-09T14:31:08.614Z,35.00
2023-02-09T14:33:39.446Z,35.00
2023-02-09T14:36:24.216Z,35.00
2023-02-09T14:39:06.018Z,34.90
2023-02-09T14:41:36.920Z,35.00
2023-02-09T14:44:20.523Z,35.00
2023-02-09T14:46:52.212Z,35.00
2023-02-09T14:49:21.174Z,35.00
2023-02-09T14:51:51.430Z,35.00
2023-02-09T14:54:25.751Z,35.00
2023-02-09T14:56:58.670Z,35.00
2023-02-09T14:59:30.763Z,35.00
2023-02-09T15:02:00.049Z,35.00
2023-02-09T15:04:29.308Z,35.00
2023-02-09T15:07:03.638Z,35.00
2023-02-09T15:09:37.873Z,35.00
2023-02-09T15:12:08.255Z,35.00
2023-02-09T15:14:42.939Z,35.00
2023-02-09T15:17:18.249Z,34.90
2023-02-09T15:19:48.010Z,34.90
2023-02-09T15:22:17.789Z,34.90
2023-02-09T15:24:49.570Z,34.80
2023-02-09T15:27:26.858Z,34.90
2023-02-09T15:29:59.394Z,34.70
2023-02-09T15:32:30.428Z,34.70
2023-02-09T15:34:59.490Z,34.70
2023-02-09T15:37:33.440Z,34.70
2023-02-09T15:40:18.280Z,34.80
2023-02-09T15:43:04.141Z,34.70
2023-02-09T15:45:50.691Z,34.70
2023-02-09T15:48:19.720Z,34.70
2023-02-09T15:50:52.014Z,34.80
2023-02-09T15:53:22.236Z,34.70
2023-02-09T15:55:58.782Z,34.70
2023-02-09T15:58:35.419Z,34.70
2023-02-09T16:01:04.698Z,34.60
2023-02-09T16:03:34.338Z,34.70
2023-02-09T16:06:06.603Z,34.60
2023-02-09T16:08:38.940Z,34.70
2023-02-09T16:11:18.312Z,34.70
2023-02-09T16:13:50.516Z,34.70
2023-02-09T16:16:20.370Z,34.70
2023-02-09T16:18:49.565Z,34.70
2023-02-09T16:21:23.428Z,34.60
2023-02-09T16:23:54.159Z,34.60
2023-02-09T16:26:25.961Z,34.80
2023-02-09T16:28:55.608Z,34.80
2023-02-09T16:31:28.265Z,34.90
2023-02-09T16:33:57.692Z,34.90
2023-02-09T16:36:30.482Z,34.80
2023-02-09T16:39:00.256Z,34.90
2023-02-09T16:41:50.774Z,34.90
2023-02-09T16:44:22.359Z,34.90
2023-02-09T16:46:53.777Z,34.90
2023-02-09T16:49:38.491Z,35.00
2023-02-09T16:52:15.778Z,34.90
2023-02-09T16:54:48.024Z,34.90
2023-02-09T16:57:21.329Z,34.90
2023-02-09T16:59:50.561Z,34.90
2023-02-09T17:02:34.045Z,34.90
2023-02-09T17:05:18.864Z,34.90
2023-02-09T17:07:54.814Z,35.00
2023-02-09T17:10:26.842Z,34.90
2023-02-09T17:12:57.666Z,34.90
2023-02-09T17:15:31.034Z,35.60
2023-02-09T17:18:03.629Z,35.00
2023-02-09T17:20:38.924Z,35.70
2023-02-09T17:23:08.182Z,35.10
2023-02-09T17:25:38.438Z,35.20
2023-02-09T17:28:09.235Z,35.10
2023-02-09T17:30:38.773Z,35.10
2023-02-09T17:33:12.229Z,35.10
2023-02-09T17:38:32.762Z,35.10
2023-02-09T17:41:02.255Z,35.20
2023-02-09T17:43:35.145Z,35.20
2023-02-09T17:46:06.188Z,35.20
2023-02-09T17:48:35.263Z,35.20
2023-02-09T17:51:07.173Z,35.20
2023-02-09T17:53:36.930Z,35.10
2023-02-09T17:56:06.478Z,35.20
2023-02-09T17:58:37.052Z,35.20
2023-02-09T18:01:25.326Z,35.20
2023-02-09T18:03:56.368Z,35.20
2023-02-09T18:06:33.778Z,35.20
2023-02-09T18:09:03.117Z,35.30
2023-02-09T18:11:56.202Z,35.20
2023-02-09T18:14:28.878Z,35.20
2023-02-09T18:16:58.080Z,35.30
2023-02-09T18:19:27.234Z,35.30
2023-02-09T18:21:57.994Z,35.30
2023-02-09T18:24:30.193Z,35.20
2023-02-09T18:26:59.299Z,35.30
2023-02-09T18:29:30.396Z,35.30
2023-02-09T18:32:00.078Z,35.20
2023-02-09T18:34:29.963Z,35.30
2023-02-09T18:36:59.625Z,35.40
2023-02-09T18:39:30.893Z,35.40
2023-02-09T18:42:00.656Z,35.40
2023-02-09T18:44:34.556Z,35.30
2023-02-09T18:47:06.121Z,35.40
2023-02-09T18:49:35.477Z,35.40
2023-02-09T18:52:05.316Z,35.40
2023-02-09T18:54:35.004Z,35.40
2023-02-09T18:57:06.618Z,35.40
2023-02-09T18:59:37.414Z,35.40
2023-02-09T19:02:06.774Z,36.10
2023-02-09T19:04:35.849Z,35.30
2023-02-09T19:07:06.459Z,35.20
2023-02-09T19:09:35.591Z,35.30
2023-02-09T19:12:07.306Z,35.20
2023-02-09T19:14:43.004Z,35.20
2023-02-09T19:17:17.203Z,35.20
2023-02-09T19:19:46.458Z,35.20
2023-02-09T19:22:16.809Z,35.20
2023-02-09T19:24:46.073Z,35.10
2023-02-09T19:27:16.946Z,35.20
2023-02-09T19:29:47.854Z,35.10
2023-02-09T19:32:16.896Z,35.20
2023-02-09T19:34:46.245Z,35.20
2023-02-09T19:37:16.537Z,35.20
2023-02-09T19:39:53.041Z,35.20
2023-02-09T19:42:22.476Z,35.10
2023-02-09T19:44:54.677Z,35.10
2023-02-09T19:47:29.144Z,35.10
2023-02-09T19:49:59.407Z,35.10
2023-02-09T19:52:31.289Z,35.20
2023-02-09T19:55:00.272Z,35.20
2023-02-09T19:57:34.257Z,35.20
2023-02-09T20:00:06.144Z,35.20
2023-02-09T20:02:36.200Z,35.20
2023-02-09T20:05:09.076Z,35.20
2023-02-09T20:07:39.598Z,35.20
2023-02-09T20:10:09.815Z,35.20
2023-02-09T20:12:39.134Z,35.20
2023-02-09T20:15:09.989Z,35.20
2023-02-09T20:17:41.390Z,35.20
2023-02-09T20:20:11.403Z,35.20
2023-02-09T20:22:40.818Z,35.20
2023-02-09T20:25:13.548Z,35.20
2023-02-09T20:27:42.947Z,35.20
2023-02-09T20:30:14.973Z,35.20
2023-02-09T20:32:44.310Z,35.20
2023-02-09T20:35:14.039Z,35.20
2023-02-09T20:37:43.352Z,35.20
2023-02-09T20:40:13.649Z,35.30
2023-02-09T20:43:00.520Z,35.20
2023-02-09T20:45:48.447Z,35.20
2023-02-09T20:48:17.715Z,35.20
2023-02-09T20:50:47.372Z,35.20
2023-02-09T20:53:19.255Z,35.20
2023-02-09T20:55:50.445Z,35.20
2023-02-09T20:58:20.738Z,35.20
2023-02-09T21:00:52.238Z,35.20
2023-02-09T21:03:21.492Z,35.20
2023-02-09T21:05:50.569Z,35.20
2023-02-09T21:08:20.411Z,35.20
2023-02-09T21:10:56.687Z,35.20
2023-02-09T21:13:26.536Z,35.20
2023-02-09T21:15:57.381Z,35.20
2023-02-09T21:18:26.922Z,35.30
2023-02-09T21:20:55.887Z,35.30
2023-02-09T21:23:27.117Z,35.20
2023-02-09T21:26:02.433Z,35.20
2023-02-09T21:28:32.226Z,35.20
2023-02-09T21:31:11.420Z,35.20
2023-02-09T21:33:41.044Z,35.20
2023-02-09T21:36:10.551Z,35.20
2023-02-09T21:38:41.848Z,35.20
2023-02-09T21:41:32.493Z,35.20
2023-02-09T21:44:01.767Z,35.20
2023-02-09T21:46:32.555Z,35.20
2023-02-09T21:49:01.601Z,35.20
2023-02-09T21:51:30.856Z,35.30
2023-02-09T21:54:00.016Z,35.20
2023-02-09T21:56:29.119Z,35.20
2023-02-09T21:58:58.509Z,35.20
2023-02-09T22:01:27.766Z,35.20
2023-02-09T22:03:58.613Z,35.20
2023-02-09T22:06:31.921Z,35.20
2023-02-09T22:09:03.182Z,35.20
2023-02-09T22:11:32.793Z,35.20
2023-02-09T22:14:05.077Z,35.20
2023-02-09T22:16:34.374Z,35.30
2023-02-09T22:19:05.393Z,35.30
2023-02-09T22:21:34.732Z,35.20
2023-02-09T22:24:03.964Z,35.30
2023-02-09T22:26:33.312Z,35.20
2023-02-09T22:29:02.600Z,35.20
2023-02-09T22:31:31.823Z,35.20
2023-02-09T22:34:00.832Z,35.20
2023-02-09T22:36:31.740Z,35.20
2023-02-09T22:39:01.343Z,35.30
2023-02-09T22:41:30.775Z,35.30
2023-02-09T22:44:01.658Z,35.20
2023-02-09T22:46:32.963Z,35.20
2023-02-09T22:49:05.948Z,35.30
2023-02-09T22:51:38.479Z,35.30
2023-02-09T22:54:08.253Z,35.30
2023-02-09T22:56:37.468Z,35.30
2023-02-09T22:59:07.295Z,35.30
2023-02-09T23:01:37.067Z,35.30
2023-02-09T23:04:06.542Z,35.20
2023-02-09T23:06:37.560Z,35.20
2023-02-09T23:09:08.839Z,35.20
2023-02-09T23:11:40.618Z,35.20
2023-02-09T23:14:13.926Z,35.90
2023-02-09T23:16:44.678Z,35.30
2023-02-09T23:19:17.932Z,35.20
2023-02-09T23:21:50.758Z,35.20
2023-02-09T23:24:22.523Z,35.30
2023-02-09T23:26:51.891Z,35.20
2023-02-09T23:29:23.471Z,35.20
2023-02-09T23:31:52.710Z,35.20
2023-02-09T23:34:23.657Z,35.30
2023-02-09T23:36:53.974Z,35.20
2023-02-09T23:39:25.938Z,35.20
2023-02-09T23:41:54.981Z,35.20
2023-02-09T23:44:26.140Z,35.20
2023-02-09T23:46:55.207Z,35.20
2023-02-09T23:49:24.133Z,35.20
2023-02-09T23:51:57.423Z,35.20
2023-02-09T23:54:26.520Z,35.20
2023-02-09T23:56:55.438Z,35.20
2023-02-09T23:59:24.698Z,35.20
